createdAt,value
2023-03-23T00:01:31.755Z,99219.19
2023-03-23T00:03:59.556Z,99216.94
2023-03-23T00:06:27.777Z,99213.72
2023-03-23T00:08:58.823Z,99219.22
2023-03-23T00:11:27.776Z,99234.47
2023-03-23T00:13:54.762Z,99232.06
2023-03-23T00:16:30.212Z,99246.28
2023-03-23T00:18:58.484Z,99241.22
2023-03-23T00:21:34.769Z,99242.03
2023-03-23T00:24:03.440Z,99233.06
2023-03-23T00:26:31.454Z,99238.38
2023-03-23T00:29:18.318Z,99238.75
2023-03-23T00:31:48.896Z,99240.84
2023-03-23T00:34:20.421Z,99248.53
2023-03-23T00:36:48.596Z,99246.31
2023-03-23T00:39:18.050Z,99265.44
2023-03-23T00:41:45.643Z,99262.38
2023-03-23T00:44:18.097Z,99268.09
2023-03-23T00:46:51.070Z,99257.91
2023-03-23T00:49:20.000Z,99266.06
2023-03-23T00:51:47.073Z,99257.09
2023-03-23T00:54:14.071Z,99277.41
2023-03-23T00:56:41.313Z,99267.91
2023-03-23T00:59:08.745Z,99284.34
2023-03-23T01:01:36.788Z,99290.44
2023-03-23T01:04:05.570Z,99281.09
2023-03-23T01:06:36.423Z,99279.28
2023-03-23T01:09:03.837Z,99283.53
2023-03-23T01:11:30.893Z,99280.28
2023-03-23T01:13:57.820Z,99295.53
2023-03-23T01:16:25.180Z,99286.22
2023-03-23T01:18:52.125Z,99284.19
2023-03-23T01:21:20.545Z,99290.50
2023-03-23T01:23:48.065Z,99298.19
2023-03-23T01:26:16.641Z,99296.59
2023-03-23T01:28:44.086Z,99298.19
2023-03-23T01:31:14.523Z,99307.38
2023-03-23T01:33:42.322Z,99300.91
2023-03-23T01:36:11.599Z,99306.00
2023-03-23T01:38:38.756Z,99317.56
2023-03-23T01:41:05.964Z,99311.47
2023-03-23T01:43:33.318Z,99320.44
2023-03-23T01:46:00.367Z,99311.47
2023-03-23T01:48:28.046Z,99318.38
2023-03-23T01:50:58.720Z,99322.66
2023-03-23T01:53:27.711Z,99316.56
2023-03-23T01:55:55.500Z,99323.88
2023-03-23T01:58:26.896Z,99328.56
2023-03-23T02:00:56.695Z,99320.63
2023-03-23T02:03:24.644Z,99324.09
2023-03-23T02:05:52.449Z,99331.00
2023-03-23T02:08:19.669Z,99325.31
2023-03-23T02:10:46.712Z,99332.22
2023-03-23T02:13:18.623Z,99324.09
2023-03-23T02:15:48.563Z,99321.03
2023-03-23T02:18:18.556Z,99322.06
2023-03-23T02:20:46.031Z,99322.69
2023-03-23T02:23:13.321Z,99330.00
2023-03-23T02:25:40.934Z,99330.81
2023-03-23T02:28:09.357Z,99326.56
2023-03-23T02:30:39.420Z,99331.03
2023-03-23T02:33:11.111Z,99339.09
2023-03-23T02:35:40.820Z,99339.53
2023-03-23T02:38:11.068Z,99336.06
2023-03-23T02:40:41.740Z,99333.84
2023-03-23T02:43:10.814Z,99322.88
2023-03-23T02:45:39.667Z,99332.03
2023-03-23T02:48:07.871Z,99341.16
2023-03-23T02:50:37.190Z,99340.38
2023-03-23T02:53:05.700Z,99336.09
2023-03-23T02:55:33.607Z,99340.16
2023-03-23T02:58:03.298Z,99347.69
2023-03-23T03:00:30.867Z,99345.22
2023-03-23T03:02:58.599Z,99345.66
2023-03-23T03:05:26.198Z,99335.50
2023-03-23T03:07:56.359Z,99339.16
2023-03-23T03:10:27.253Z,99336.72
2023-03-23T03:12:57.288Z,99349.72
2023-03-23T03:15:28.154Z,99343.22
2023-03-23T03:17:58.201Z,99345.25
2023-03-23T03:20:27.732Z,99340.56
2023-03-23T03:22:56.677Z,99343.44
2023-03-23T03:25:24.654Z,99343.22
2023-03-23T03:27:53.750Z,99339.34
2023-03-23T03:30:25.212Z,99346.88
2023-03-23T03:32:54.763Z,99353.56
2023-03-23T03:35:23.368Z,99353.19
2023-03-23T03:37:52.165Z,99348.28
2023-03-23T03:40:21.323Z,99361.47
2023-03-23T03:42:48.463Z,99357.22
2023-03-23T03:45:17.245Z,99364.13
2023-03-23T03:47:44.260Z,99368.16
2023-03-23T03:50:11.545Z,99370.19
2023-03-23T03:52:39.585Z,99364.50
2023-03-23T03:55:08.241Z,99363.72
2023-03-23T03:57:35.876Z,99370.19
2023-03-23T04:00:14.210Z,99369.19
2023-03-23T04:02:44.323Z,99373.00
2023-03-23T04:05:12.912Z,99364.50
2023-03-23T04:07:40.716Z,99375.25
2023-03-23T04:10:08.388Z,99367.97
2023-03-23T04:12:36.276Z,99381.75
2023-03-23T04:15:06.402Z,99377.47
2023-03-23T04:17:33.923Z,99380.50
2023-03-23T04:20:01.436Z,99381.31
2023-03-23T04:22:32.133Z,99390.03
2023-03-23T04:24:59.903Z,99380.31
2023-03-23T04:27:29.283Z,99389.63
2023-03-23T04:29:57.615Z,99391.66
2023-03-23T04:32:26.296Z,99393.69
2023-03-23T04:34:53.525Z,99396.91
2023-03-23T04:37:40.107Z,99401.16
2023-03-23T04:40:11.188Z,99399.72
2023-03-23T04:42:38.919Z,99398.91
2023-03-23T04:45:07.515Z,99396.06
2023-03-23T04:47:40.856Z,99403.97
2023-03-23T04:50:10.657Z,99405.00
2023-03-23T04:52:41.689Z,99405.41
2023-03-23T04:55:16.176Z,99407.81
2023-03-23T04:57:43.288Z,99411.06
2023-03-23T05:00:14.067Z,99408.03
2023-03-23T05:02:41.513Z,99412.09
2023-03-23T05:05:08.968Z,99415.72
2023-03-23T05:07:36.194Z,99412.50
2023-03-23T05:10:03.248Z,99416.53
2023-03-23T05:12:30.193Z,99409.44
2023-03-23T05:14:57.145Z,99414.91
2023-03-23T05:17:25.270Z,99415.09
2023-03-23T05:19:52.648Z,99409.63
2023-03-23T05:22:22.088Z,99418.94
2023-03-23T05:24:49.080Z,99427.50
2023-03-23T05:27:16.281Z,99414.72
2023-03-23T05:29:43.223Z,99419.41
2023-03-23T05:32:10.243Z,99420.84
2023-03-23T05:34:37.131Z,99428.97
2023-03-23T05:37:04.715Z,99424.50
2023-03-23T05:39:32.518Z,99427.16
2023-03-23T05:41:59.796Z,99427.75
2023-03-23T05:44:27.916Z,99428.56
2023-03-23T05:47:00.857Z,99422.91
2023-03-23T05:49:28.417Z,99420.47
2023-03-23T05:51:55.677Z,99415.59
2023-03-23T05:54:22.672Z,99414.56
2023-03-23T05:56:50.322Z,99412.31
2023-03-23T05:59:21.000Z,99414.72
2023-03-23T06:01:48.030Z,99412.31
2023-03-23T06:04:18.414Z,99411.47
2023-03-23T06:06:45.440Z,99409.84
2023-03-23T06:09:13.127Z,99394.84
2023-03-23T06:11:40.063Z,99409.84
2023-03-23T06:14:07.043Z,99403.75
2023-03-23T06:16:34.044Z,99405.78
2023-03-23T06:19:02.157Z,99412.72
2023-03-23T06:21:29.467Z,99409.66
2023-03-23T06:23:57.241Z,99400.56
2023-03-23T06:26:27.392Z,99402.78
2023-03-23T06:28:54.433Z,99399.16
2023-03-23T06:31:21.799Z,99405.66
2023-03-23T06:33:48.724Z,99412.97
2023-03-23T06:36:15.714Z,99408.31
2023-03-23T06:38:42.759Z,99413.78
2023-03-23T06:41:10.134Z,99415.00
2023-03-23T06:43:40.605Z,99406.91
2023-03-23T06:46:08.141Z,99412.19
2023-03-23T06:48:35.185Z,99411.00
2023-03-23T06:51:02.131Z,99407.78
2023-03-23T06:53:29.116Z,99419.72
2023-03-23T06:55:56.067Z,99415.88
2023-03-23T06:58:25.001Z,99410.59
2023-03-23T07:00:55.084Z,99407.16
2023-03-23T07:03:22.076Z,99405.75
2023-03-23T07:05:49.117Z,99416.31
2023-03-23T07:08:16.254Z,99411.63
2023-03-23T07:10:43.994Z,99412.47
2023-03-23T07:13:11.825Z,99403.13
2023-03-23T07:15:40.358Z,99396.84
2023-03-23T07:18:07.657Z,99393.19
2023-03-23T07:20:34.674Z,99390.50
2023-03-23T07:23:03.425Z,99387.88
2023-03-23T07:25:30.443Z,99382.59
2023-03-23T07:27:57.701Z,99386.84
2023-03-23T07:30:24.827Z,99396.72
2023-03-23T07:32:56.916Z,99397.25
2023-03-23T07:35:24.563Z,99388.59
2023-03-23T07:37:53.344Z,99394.81
2023-03-23T07:40:28.049Z,99386.28
2023-03-23T07:42:56.858Z,99393.13
2023-03-23T07:45:24.665Z,99407.63
2023-03-23T07:47:52.307Z,99399.84
2023-03-23T07:50:22.606Z,99393.63
2023-03-23T07:52:49.724Z,99402.22
2023-03-23T07:55:19.043Z,99399.34
2023-03-23T07:57:47.020Z,99396.53
2023-03-23T08:00:20.431Z,99408.81
2023-03-23T08:02:48.360Z,99420.19
2023-03-23T08:05:16.511Z,99427.81
2023-03-23T08:07:44.214Z,99418.06
2023-03-23T08:10:12.356Z,99425.38
2023-03-23T08:12:40.502Z,99416.38
2023-03-23T08:15:08.522Z,99413.06
2023-03-23T08:17:36.143Z,99426.81
2023-03-23T08:20:10.450Z,99417.72
2023-03-23T08:22:44.746Z,99430.88
2023-03-23T08:25:19.445Z,99427.88
2023-03-23T08:27:46.994Z,99433.84
2023-03-23T08:30:15.560Z,99437.22
2023-03-23T08:32:42.966Z,99441.03
2023-03-23T08:35:11.116Z,99445.56
2023-03-23T08:37:38.831Z,99446.16
2023-03-23T08:40:10.133Z,99444.00
2023-03-23T08:42:39.575Z,99434.72
2023-03-23T08:45:08.519Z,99434.78
2023-03-23T08:47:36.899Z,99446.00
2023-03-23T08:50:04.720Z,99431.78
2023-03-23T08:52:32.217Z,99438.66
2023-03-23T08:54:59.675Z,99430.69
2023-03-23T08:57:27.597Z,99436.13
2023-03-23T08:59:58.934Z,99436.94
2023-03-23T09:02:26.204Z,99437.19
2023-03-23T09:04:54.273Z,99436.13
2023-03-23T09:07:21.379Z,99439.69
2023-03-23T09:09:48.685Z,99441.06
2023-03-23T09:12:15.764Z,99435.31
2023-03-23T09:14:43.301Z,99450.00
2023-03-23T09:17:12.686Z,99450.22
2023-03-23T09:19:40.027Z,99440.63
2023-03-23T09:22:07.280Z,99450.81
2023-03-23T09:24:34.585Z,99448.72
2023-03-23T09:27:01.668Z,99453.47
2023-03-23T09:29:30.461Z,99445.06
2023-03-23T09:31:57.680Z,99444.88
2023-03-23T09:34:24.804Z,99440.75
2023-03-23T09:36:53.416Z,99434.88
2023-03-23T09:39:21.315Z,99439.38
2023-03-23T09:41:50.754Z,99433.88
2023-03-23T09:44:24.413Z,99437.75
2023-03-23T09:46:52.882Z,99437.09
2023-03-23T09:49:25.151Z,99432.59
2023-03-23T09:51:54.562Z,99431.72
2023-03-23T09:54:22.173Z,99437.03
2023-03-23T09:56:49.798Z,99429.63
2023-03-23T09:59:20.539Z,99425.84
2023-03-23T10:01:50.239Z,99436.28
2023-03-23T10:04:23.460Z,99437.03
2023-03-23T10:06:50.826Z,99433.56
2023-03-23T10:09:20.237Z,99440.91
2023-03-23T10:11:48.804Z,99436.56
2023-03-23T10:14:24.168Z,99424.53
2023-03-23T10:16:57.145Z,99411.88
2023-03-23T10:19:27.603Z,99446.22
2023-03-23T10:21:58.448Z,99450.13
2023-03-23T10:24:31.448Z,99458.06
2023-03-23T10:27:06.930Z,99451.50
2023-03-23T10:29:38.276Z,99450.34
2023-03-23T10:32:11.444Z,99451.22
2023-03-23T10:34:41.989Z,99466.34
2023-03-23T10:37:10.368Z,99462.28
2023-03-23T10:39:40.521Z,99461.50
2023-03-23T10:42:09.201Z,99466.19
2023-03-23T10:44:36.261Z,99462.59
2023-03-23T10:47:05.630Z,99458.44
2023-03-23T10:49:35.895Z,99467.00
2023-03-23T10:52:03.572Z,99470.84
2023-03-23T10:54:34.245Z,99453.41
2023-03-23T10:57:03.857Z,99461.31
2023-03-23T10:59:33.801Z,99460.69
2023-03-23T11:02:04.323Z,99452.03
2023-03-23T11:04:32.808Z,99473.81
2023-03-23T11:07:02.404Z,99465.53
2023-03-23T11:09:32.505Z,99468.69
2023-03-23T11:12:02.591Z,99468.81
2023-03-23T11:14:31.494Z,99461.13
2023-03-23T11:17:10.290Z,99449.34
2023-03-23T11:19:43.016Z,99455.81
2023-03-23T11:22:15.900Z,99464.19
2023-03-23T11:24:47.095Z,99467.50
2023-03-23T11:27:15.540Z,99451.09
2023-03-23T11:29:51.981Z,99453.53
2023-03-23T11:32:27.651Z,99459.22
2023-03-23T11:35:06.904Z,99460.16
2023-03-23T11:37:44.077Z,99467.53
2023-03-23T11:40:12.761Z,99458.63
2023-03-23T11:42:42.961Z,99447.78
2023-03-23T11:45:13.068Z,99457.00
2023-03-23T11:47:42.908Z,99441.41
2023-03-23T11:50:11.926Z,99461.94
2023-03-23T11:52:40.349Z,99466.09
2023-03-23T11:55:11.161Z,99452.38
2023-03-23T11:57:38.384Z,99458.84
2023-03-23T12:00:09.158Z,99431.00
2023-03-23T12:02:36.584Z,99441.97
2023-03-23T12:05:07.301Z,99442.59
2023-03-23T12:07:38.104Z,99441.22
2023-03-23T12:10:08.273Z,99455.81
2023-03-23T12:12:38.520Z,99436.19
2023-03-23T12:15:08.740Z,99422.00
2023-03-23T12:17:42.915Z,99431.13
2023-03-23T12:20:16.017Z,99439.09
2023-03-23T12:22:46.179Z,99424.22
2023-03-23T12:25:16.680Z,99426.56
2023-03-23T12:27:48.469Z,99434.75
2023-03-23T12:30:18.701Z,99433.72
2023-03-23T12:32:48.886Z,99429.56
2023-03-23T12:35:21.560Z,99435.13
2023-03-23T12:37:54.743Z,99432.69
2023-03-23T12:40:30.146Z,99419.03
2023-03-23T12:43:00.412Z,99426.09
2023-03-23T12:45:30.901Z,99423.22
2023-03-23T12:48:01.824Z,99427.72
2023-03-23T12:50:32.016Z,99420.44
2023-03-23T12:53:05.726Z,99404.25
2023-03-23T12:55:36.116Z,99402.06
2023-03-23T12:58:07.545Z,99386.69
2023-03-23T13:00:40.038Z,99369.22
2023-03-23T13:03:10.186Z,99377.09
2023-03-23T13:05:42.309Z,99376.38
2023-03-23T13:08:13.725Z,99383.00
2023-03-23T13:10:44.319Z,99376.59
2023-03-23T13:13:21.162Z,99387.03
2023-03-23T13:15:51.560Z,99396.63
2023-03-23T13:18:26.580Z,99390.00
2023-03-23T13:20:57.098Z,99394.19
2023-03-23T13:23:26.514Z,99412.69
2023-03-23T13:25:57.985Z,99405.19
2023-03-23T13:28:27.480Z,99388.53
2023-03-23T13:30:58.725Z,99385.66
2023-03-23T13:33:26.853Z,99390.28
2023-03-23T13:35:55.504Z,99382.63
2023-03-23T13:38:26.112Z,99364.59
2023-03-23T13:40:55.244Z,99365.63
2023-03-23T13:43:25.717Z,99361.13
2023-03-23T13:45:55.408Z,99367.03
2023-03-23T13:48:25.470Z,99366.34
2023-03-23T13:50:55.615Z,99371.53
2023-03-23T13:53:30.412Z,99364.28
2023-03-23T13:56:05.857Z,99362.97
2023-03-23T13:58:46.110Z,99359.88
2023-03-23T14:01:17.708Z,99359.16
2023-03-23T14:03:51.894Z,99368.06
2023-03-23T14:06:22.690Z,99336.59
2023-03-23T14:08:52.329Z,99360.22
2023-03-23T14:11:23.166Z,99370.41
2023-03-23T14:13:53.710Z,99372.25
2023-03-23T14:16:22.761Z,99363.94
2023-03-23T14:18:53.181Z,99374.19
2023-03-23T14:21:28.435Z,99371.78
2023-03-23T14:23:58.004Z,99350.63
2023-03-23T14:26:25.395Z,99349.22
2023-03-23T14:28:54.923Z,99346.25
2023-03-23T14:31:26.032Z,99344.16
2023-03-23T14:33:54.829Z,99335.84
2023-03-23T14:36:23.564Z,99329.81
2023-03-23T14:38:58.801Z,99348.66
2023-03-23T14:41:29.308Z,99341.38
2023-03-23T14:43:56.591Z,99323.13
2023-03-23T14:46:26.265Z,99346.91
2023-03-23T14:48:53.937Z,99321.16
2023-03-23T14:51:22.420Z,99317.75
2023-03-23T14:53:52.512Z,99313.88
2023-03-23T14:56:21.072Z,99325.72
2023-03-23T14:58:49.681Z,99332.41
2023-03-23T15:01:20.515Z,99337.38
2023-03-23T15:03:52.814Z,99338.16
2023-03-23T15:06:22.260Z,99333.66
2023-03-23T15:08:51.119Z,99333.53
2023-03-23T15:11:19.852Z,99340.56
2023-03-23T15:14:00.723Z,99326.38
2023-03-23T15:16:29.513Z,99318.03
2023-03-23T15:18:57.340Z,99322.88
2023-03-23T15:21:27.780Z,99324.13
2023-03-23T15:23:56.001Z,99316.41
2023-03-23T15:26:27.497Z,99322.81
2023-03-23T15:28:57.964Z,99315.28
2023-03-23T15:31:26.025Z,99316.94
2023-03-23T15:33:57.209Z,99314.59
2023-03-23T15:36:24.614Z,99309.47
2023-03-23T15:38:52.279Z,99306.56
2023-03-23T15:41:22.768Z,99308.03
2023-03-23T15:43:52.629Z,99307.06
2023-03-23T15:46:22.689Z,99302.44
2023-03-23T15:48:53.349Z,99300.59
2023-03-23T15:51:21.656Z,99291.38
2023-03-23T15:53:50.381Z,99293.22
2023-03-23T15:56:18.709Z,99282.41
2023-03-23T15:58:46.458Z,99284.31
2023-03-23T16:01:16.102Z,99281.91
2023-03-23T16:03:45.598Z,99292.06
2023-03-23T16:06:25.334Z,99282.47
2023-03-23T16:08:55.642Z,99277.13
2023-03-23T16:11:24.266Z,99285.84
2023-03-23T16:13:51.642Z,99271.81
2023-03-23T16:16:23.048Z,99272.03
2023-03-23T16:18:50.845Z,99268.47
2023-03-23T16:21:18.351Z,99268.56
2023-03-23T16:23:46.996Z,99261.25
2023-03-23T16:26:15.159Z,99250.44
2023-03-23T16:28:43.178Z,99250.09
2023-03-23T16:31:10.897Z,99249.28
2023-03-23T16:33:38.766Z,99249.28
2023-03-23T16:36:06.694Z,99243.38
2023-03-23T16:38:34.208Z,99239.56
2023-03-23T16:41:17.478Z,99237.34
2023-03-23T16:43:45.265Z,99235.28
2023-03-23T16:46:14.039Z,99238.16
2023-03-23T16:48:41.656Z,99234.56
2023-03-23T16:51:09.270Z,99223.00
2023-03-23T16:53:37.665Z,99217.91
2023-03-23T16:56:05.731Z,99211.81
2023-03-23T16:58:33.272Z,99201.22
2023-03-23T17:01:01.984Z,99199.84
2023-03-23T17:03:29.505Z,99204.75
2023-03-23T17:05:57.307Z,99195.19
2023-03-23T17:08:24.830Z,99182.63
2023-03-23T17:10:52.115Z,99186.72
2023-03-23T17:13:19.698Z,99189.19
2023-03-23T17:15:47.610Z,99191.03
2023-03-23T17:18:15.965Z,99186.56
2023-03-23T17:20:44.123Z,99169.88
2023-03-23T17:23:11.961Z,99154.00
2023-03-23T17:25:39.464Z,99153.38
2023-03-23T17:28:07.312Z,99157.25
2023-03-23T17:30:35.811Z,99150.72
2023-03-23T17:33:03.419Z,99135.63
2023-03-23T17:35:31.175Z,99141.56
2023-03-23T17:37:59.009Z,99137.34
2023-03-23T17:40:26.768Z,99127.31
2023-03-23T17:42:54.224Z,99126.75
2023-03-23T17:45:24.719Z,99121.03
2023-03-23T17:47:52.150Z,99121.13
2023-03-23T17:50:19.811Z,99111.91
2023-03-23T17:52:47.342Z,99117.81
2023-03-23T17:55:14.714Z,99105.41
2023-03-23T17:57:43.980Z,99105.16
2023-03-23T18:00:13.334Z,99115.16
2023-03-23T18:02:42.095Z,99111.56
2023-03-23T18:05:10.763Z,99103.03
2023-03-23T18:07:38.548Z,99112.78
2023-03-23T18:10:12.266Z,99105.88
2023-03-23T18:12:41.900Z,99091.84
2023-03-23T18:15:10.325Z,99088.16
2023-03-23T18:17:38.257Z,99082.06
2023-03-23T18:20:06.608Z,99079.41
2023-03-23T18:22:34.089Z,99066.84
2023-03-23T18:25:03.773Z,99061.22
2023-03-23T18:27:31.801Z,99056.13
2023-03-23T18:29:59.619Z,99049.47
2023-03-23T18:32:32.994Z,99045.03
2023-03-23T18:35:00.352Z,99039.75
2023-03-23T18:37:28.600Z,99028.16
2023-03-23T18:39:56.155Z,99018.59
2023-03-23T18:42:23.384Z,99019.81
2023-03-23T18:44:50.549Z,99016.00
2023-03-23T18:47:22.048Z,99005.44
2023-03-23T18:49:54.520Z,99002.22
2023-03-23T18:52:22.736Z,98998.50
2023-03-23T18:54:50.107Z,98995.88
2023-03-23T18:57:18.508Z,98989.81
2023-03-23T18:59:46.103Z,98990.81
2023-03-23T19:02:14.615Z,98992.88
2023-03-23T19:04:42.109Z,98980.25
2023-03-23T19:07:09.590Z,98976.59
2023-03-23T19:09:37.298Z,98973.13
2023-03-23T19:12:04.592Z,98974.16
2023-03-23T19:14:32.059Z,98963.38
2023-03-23T19:16:59.393Z,98981.28
2023-03-23T19:19:27.061Z,98959.75
2023-03-23T19:21:54.365Z,98966.44
2023-03-23T19:24:21.606Z,98969.88
2023-03-23T19:26:48.942Z,98963.56
2023-03-23T19:31:48.274Z,98942.78
2023-03-23T19:34:16.454Z,98956.22
2023-03-23T19:36:53.712Z,98960.94
2023-03-23T19:39:23.798Z,98957.47
2023-03-23T19:41:51.668Z,98954.84
2023-03-23T19:44:18.800Z,98954.16
2023-03-23T19:46:46.190Z,98954.09
2023-03-23T19:49:14.658Z,98962.97
2023-03-23T19:51:41.941Z,98967.59
2023-03-23T19:54:09.097Z,98960.09
2023-03-23T19:56:36.619Z,98962.97
2023-03-23T19:59:05.028Z,98956.88
2023-03-23T20:01:32.591Z,98962.16
2023-03-23T20:04:02.128Z,98962.84
2023-03-23T20:06:29.837Z,98956.28
2023-03-23T20:09:00.210Z,98963.41
2023-03-23T20:11:28.243Z,98952.81
2023-03-23T20:13:56.012Z,98957.91
2023-03-23T20:16:23.744Z,98956.28
2023-03-23T20:18:50.961Z,98958.38
2023-03-23T20:21:22.346Z,98962.25
2023-03-23T20:23:50.704Z,98961.22
2023-03-23T20:26:19.699Z,98954.53
2023-03-23T20:28:47.743Z,98959.44
2023-03-23T20:31:23.109Z,98957.41
2023-03-23T20:33:59.917Z,98963.94
2023-03-23T20:36:35.255Z,98964.94
2023-03-23T20:39:05.813Z,98967.44
2023-03-23T20:41:33.505Z,98972.38
2023-03-23T20:44:00.658Z,98973.50
2023-03-23T20:46:28.186Z,98974.06
2023-03-23T20:48:55.360Z,98967.16
2023-03-23T20:51:22.703Z,98977.31
2023-03-23T20:53:50.504Z,98988.09
2023-03-23T20:56:17.667Z,98988.09
2023-03-23T20:58:45.183Z,98984.63
2023-03-23T21:01:12.386Z,98986.13
2023-03-23T21:03:40.847Z,99003.59
2023-03-23T21:06:08.489Z,99000.94
2023-03-23T21:08:37.542Z,99000.94
2023-03-23T21:11:05.630Z,98996.09
2023-03-23T21:13:32.699Z,98999.19
2023-03-23T21:16:01.442Z,99003.06
2023-03-23T21:18:28.894Z,99002.03
2023-03-23T21:20:57.750Z,99010.41
2023-03-23T21:23:27.061Z,99002.25
2023-03-23T21:25:55.022Z,98988.81
2023-03-23T21:28:22.463Z,98989.91
2023-03-23T21:30:52.899Z,98986.47
2023-03-23T21:33:20.503Z,98991.97
2023-03-23T21:35:47.716Z,98984.91
2023-03-23T21:38:15.466Z,98987.53
2023-03-23T21:40:43.330Z,98986.72
2023-03-23T21:43:15.167Z,98988.19
2023-03-23T21:45:42.935Z,98998.19
2023-03-23T21:48:10.879Z,99001.00
2023-03-23T21:50:38.906Z,98999.56
2023-03-23T21:53:06.056Z,99004.50
2023-03-23T21:55:34.064Z,98997.38
2023-03-23T21:58:01.514Z,99001.25
2023-03-23T22:00:28.841Z,99003.88
2023-03-23T22:02:56.008Z,99009.78
2023-03-23T22:05:23.343Z,99009.41
2023-03-23T22:07:51.573Z,99010.63
2023-03-23T22:10:18.842Z,99010.03
2023-03-23T22:12:46.202Z,99018.78
2023-03-23T22:15:14.303Z,99014.53
2023-03-23T22:17:41.609Z,99014.56
2023-03-23T22:20:11.667Z,99011.13
2023-03-23T22:22:38.696Z,99010.31
2023-03-23T22:25:06.696Z,99021.31
2023-03-23T22:27:33.973Z,99023.72
2023-03-23T22:30:01.028Z,99014.22
2023-03-23T22:32:28.285Z,99026.38
2023-03-23T22:34:55.361Z,99025.56
2023-03-23T22:37:22.510Z,99021.72
2023-03-23T22:39:49.622Z,99033.75
2023-03-23T22:42:16.725Z,99035.00
2023-03-23T22:44:43.979Z,99032.75
2023-03-23T22:47:11.548Z,99026.84
2023-03-23T22:49:39.494Z,99028.31
2023-03-23T22:52:06.959Z,99021.63
2023-03-23T22:54:34.141Z,99025.06
2023-03-23T22:57:01.352Z,99015.31
2023-03-23T22:59:28.458Z,99025.06
2023-03-23T23:01:55.575Z,99026.31
2023-03-23T23:04:22.747Z,99025.91
2023-03-23T23:06:50.933Z,99023.88
2023-03-23T23:09:20.718Z,99043.97
2023-03-23T23:11:47.875Z,99043.97
2023-03-23T23:14:14.993Z,99038.91
2023-03-23T23:16:42.860Z,99041.16
2023-03-23T23:19:10.042Z,99046.88
2023-03-23T23:21:37.456Z,99047.88
2023-03-23T23:24:04.628Z,99053.16
2023-03-23T23:26:31.735Z,99057.44
2023-03-23T23:28:58.812Z,99071.63
2023-03-23T23:31:27.631Z,99067.75
2023-03-23T23:33:55.713Z,99069.19
2023-03-23T23:36:23.110Z,99077.66
2023-03-23T23:38:50.216Z,99064.91
2023-03-23T23:41:17.428Z,99071.22
2023-03-23T23:43:44.616Z,99079.53
2023-03-23T23:46:11.959Z,99089.25
2023-03-23T23:48:39.209Z,99090.88
2023-03-23T23:51:06.968Z,99088.69
2023-03-23T23:53:34.345Z,99094.53
2023-03-23T23:56:03.247Z,99101.44
2023-03-23T23:58:30.429Z,99092.94
